sensor_id;sensor_type;location;lat;lon;timestamp;temperature;humidity
22108;DHT22;11220;48.812;9.128;2023-12-20T00:00:00;17.40;74.00
22108;DHT22;11220;48.812;9.128;2023-12-20T00:02:26;17.30;73.90
22108;DHT22;11220;48.812;9.128;2023-12-20T00:04:51;17.30;73.90
22108;DHT22;11220;48.812;9.128;2023-12-20T00:07:17;17.90;74.30
22108;DHT22;11220;48.812;9.128;2023-12-20T00:09:42;17.30;73.90
22108;DHT22;11220;48.812;9.128;2023-12-20T00:12:08;17.30;73.90
22108;DHT22;11220;48.812;9.128;2023-12-20T00:14:34;17.30;73.90
22108;DHT22;11220;48.812;9.128;2023-12-20T00:16:59;17.30;73.90
22108;DHT22;11220;48.812;9.128;2023-12-20T00:19:25;17.30;74.00
22108;DHT22;11220;48.812;9.128;2023-12-20T00:21:50;17.30;74.00
22108;DHT22;11220;48.812;9.128;2023-12-20T00:24:16;17.30;74.00
22108;DHT22;11220;48.812;9.128;2023-12-20T00:26:41;17.30;74.00
22108;DHT22;11220;48.812;9.128;2023-12-20T00:29:07;17.30;74.00
22108;DHT22;11220;48.812;9.128;2023-12-20T00:31:33;18.00;74.50
22108;DHT22;11220;48.812;9.128;2023-12-20T00:33:58;17.30;74.10
22108;DHT22;11220;48.812;9.128;2023-12-20T00:36:24;17.30;74.10
22108;DHT22;11220;48.812;9.128;2023-12-20T00:38:49;17.30;74.10
22108;DHT22;11220;48.812;9.128;2023-12-20T00:41:16;17.30;74.10
22108;DHT22;11220;48.812;9.128;2023-12-20T00:43:42;17.30;74.10
22108;DHT22;11220;48.812;9.128;2023-12-20T00:46:07;17.30;74.20
22108;DHT22;11220;48.812;9.128;2023-12-20T00:48:33;17.30;74.10
22108;DHT22;11220;48.812;9.128;2023-12-20T00:50:58;17.30;74.10
22108;DHT22;11220;48.812;9.128;2023-12-20T00:53:24;17.30;74.10
22108;DHT22;11220;48.812;9.128;2023-12-20T00:55:51;17.20;74.10
22108;DHT22;11220;48.812;9.128;2023-12-20T00:58:17;17.20;74.20
22108;DHT22;11220;48.812;9.128;2023-12-20T01:00:43;17.20;74.20
22108;DHT22;11220;48.812;9.128;2023-12-20T01:03:09;17.30;74.30
22108;DHT22;11220;48.812;9.128;2023-12-20T01:05:34;17.20;74.30
22108;DHT22;11220;48.812;9.128;2023-12-20T01:08:00;17.20;74.20
22108;DHT22;11220;48.812;9.128;2023-12-20T01:10:28;17.20;74.30
22108;DHT22;11220;48.812;9.128;2023-12-20T01:12:54;17.20;74.30
22108;DHT22;11220;48.812;9.128;2023-12-20T01:15:20;17.20;74.30
22108;DHT22;11220;48.812;9.128;2023-12-20T01:17:45;17.20;74.30
22108;DHT22;11220;48.812;9.128;2023-12-20T01:20:11;17.20;74.30
22108;DHT22;11220;48.812;9.128;2023-12-20T01:22:36;17.20;74.40
22108;DHT22;11220;48.812;9.128;2023-12-20T01:25:02;17.20;74.40
22108;DHT22;11220;48.812;9.128;2023-12-20T01:27:28;17.20;74.40
22108;DHT22;11220;48.812;9.128;2023-12-20T01:29:53;17.50;74.60
22108;DHT22;11220;48.812;9.128;2023-12-20T01:32:19;17.20;74.40
22108;DHT22;11220;48.812;9.128;2023-12-20T01:34:45;17.20;74.50
22108;DHT22;11220;48.812;9.128;2023-12-20T01:37:10;17.20;74.40
22108;DHT22;11220;48.812;9.128;2023-12-20T01:39:36;17.20;74.40
22108;DHT22;11220;48.812;9.128;2023-12-20T01:42:01;17.20;74.40
22108;DHT22;11220;48.812;9.128;2023-12-20T01:44:27;17.20;74.50
22108;DHT22;11220;48.812;9.128;2023-12-20T01:46:53;17.10;74.40
22108;DHT22;11220;48.812;9.128;2023-12-20T01:49:19;17.10;74.50
22108;DHT22;11220;48.812;9.128;2023-12-20T01:51:46;17.20;74.50
22108;DHT22;11220;48.812;9.128;2023-12-20T01:54:12;17.10;74.50
22108;DHT22;11220;48.812;9.128;2023-12-20T01:56:38;17.10;74.50
22108;DHT22;11220;48.812;9.128;2023-12-20T01:59:06;17.20;74.60
22108;DHT22;11220;48.812;9.128;2023-12-20T02:01:32;17.10;74.60
22108;DHT22;11220;48.812;9.128;2023-12-20T02:03:58;17.10;74.60
22108;DHT22;11220;48.812;9.128;2023-12-20T02:06:24;17.10;74.60
22108;DHT22;11220;48.812;9.128;2023-12-20T02:08:54;17.10;74.60
22108;DHT22;11220;48.812;9.128;2023-12-20T02:11:20;17.10;74.60
22108;DHT22;11220;48.812;9.128;2023-12-20T02:13:46;17.10;74.60
22108;DHT22;11220;48.812;9.128;2023-12-20T02:16:12;17.10;74.70
22108;DHT22;11220;48.812;9.128;2023-12-20T02:18:37;17.10;74.70
22108;DHT22;11220;48.812;9.128;2023-12-20T02:21:05;17.10;74.70
22108;DHT22;11220;48.812;9.128;2023-12-20T02:23:31;17.10;74.70
22108;DHT22;11220;48.812;9.128;2023-12-20T02:25:56;17.10;74.70
22108;DHT22;11220;48.812;9.128;2023-12-20T02:28:22;17.10;74.70
22108;DHT22;11220;48.812;9.128;2023-12-20T02:30:48;17.10;74.80
22108;DHT22;11220;48.812;9.128;2023-12-20T02:33:15;17.10;74.80
22108;DHT22;11220;48.812;9.128;2023-12-20T02:35:41;17.10;74.80
22108;DHT22;11220;48.812;9.128;2023-12-20T02:38:06;17.10;74.80
22108;DHT22;11220;48.812;9.128;2023-12-20T02:40:32;17.00;74.70
22108;DHT22;11220;48.812;9.128;2023-12-20T02:42:58;17.10;74.80
22108;DHT22;11220;48.812;9.128;2023-12-20T02:45:23;17.00;74.70
22108;DHT22;11220;48.812;9.128;2023-12-20T02:47:49;17.10;74.80
22108;DHT22;11220;48.812;9.128;2023-12-20T02:50:20;17.10;74.80
22108;DHT22;11220;48.812;9.128;2023-12-20T02:52:46;17.10;74.90
22108;DHT22;11220;48.812;9.128;2023-12-20T02:55:12;17.10;74.90
22108;DHT22;11220;48.812;9.128;2023-12-20T02:57:37;17.10;74.90
22108;DHT22;11220;48.812;9.128;2023-12-20T03:00:08;17.00;74.90
22108;DHT22;11220;48.812;9.128;2023-12-20T03:02:34;17.00;74.80
22108;DHT22;11220;48.812;9.128;2023-12-20T03:05:00;17.00;74.90
22108;DHT22;11220;48.812;9.128;2023-12-20T03:07:25;17.00;75.00
22108;DHT22;11220;48.812;9.128;2023-12-20T03:09:51;17.00;74.90
22108;DHT22;11220;48.812;9.128;2023-12-20T03:12:16;17.00;74.90
22108;DHT22;11220;48.812;9.128;2023-12-20T03:14:43;17.00;74.90
22108;DHT22;11220;48.812;9.128;2023-12-20T03:17:09;17.00;75.00
22108;DHT22;11220;48.812;9.128;2023-12-20T03:19:34;17.00;75.00
22108;DHT22;11220;48.812;9.128;2023-12-20T03:22:00;17.00;75.10
22108;DHT22;11220;48.812;9.128;2023-12-20T03:24:26;17.00;75.00
22108;DHT22;11220;48.812;9.128;2023-12-20T03:26:52;17.00;75.00
22108;DHT22;11220;48.812;9.128;2023-12-20T03:29:17;17.00;75.00
22108;DHT22;11220;48.812;9.128;2023-12-20T03:31:43;17.00;75.00
22108;DHT22;11220;48.812;9.128;2023-12-20T03:34:08;17.00;75.10
22108;DHT22;11220;48.812;9.128;2023-12-20T03:36:34;17.00;75.10
22108;DHT22;11220;48.812;9.128;2023-12-20T03:38:59;17.00;75.10
22108;DHT22;11220;48.812;9.128;2023-12-20T03:41:25;17.00;75.10
22108;DHT22;11220;48.812;9.128;2023-12-20T03:43:51;17.00;75.10
22108;DHT22;11220;48.812;9.128;2023-12-20T03:46:16;17.00;75.10
22108;DHT22;11220;48.812;9.128;2023-12-20T03:48:42;16.90;75.10
22108;DHT22;11220;48.812;9.128;2023-12-20T03:51:08;16.90;75.10
22108;DHT22;11220;48.812;9.128;2023-12-20T03:53:33;16.90;75.10
22108;DHT22;11220;48.812;9.128;2023-12-20T03:55:59;16.90;75.10
22108;DHT22;11220;48.812;9.128;2023-12-20T03:58:24;17.00;75.20
22108;DHT22;11220;48.812;9.128;2023-12-20T04:00:50;16.90;75.10
22108;DHT22;11220;48.812;9.128;2023-12-20T04:03:15;16.90;75.10
22108;DHT22;11220;48.812;9.128;2023-12-20T04:05:41;17.70;75.70
22108;DHT22;11220;48.812;9.128;2023-12-20T04:08:07;16.90;75.20
22108;DHT22;11220;48.812;9.128;2023-12-20T04:10:33;16.90;75.20
22108;DHT22;11220;48.812;9.128;2023-12-20T04:12:58;16.90;75.20
22108;DHT22;11220;48.812;9.128;2023-12-20T04:15:24;16.90;75.20
22108;DHT22;11220;48.812;9.128;2023-12-20T04:17:49;17.50;75.60
22108;DHT22;11220;48.812;9.128;2023-12-20T04:20:15;16.90;75.20
22108;DHT22;11220;48.812;9.128;2023-12-20T04:22:40;16.90;75.20
22108;DHT22;11220;48.812;9.128;2023-12-20T04:25:13;16.90;75.20
22108;DHT22;11220;48.812;9.128;2023-12-20T04:27:38;16.90;75.20
22108;DHT22;11220;48.812;9.128;2023-12-20T04:30:04;16.90;75.20
22108;DHT22;11220;48.812;9.128;2023-12-20T04:32:30;16.90;75.20
22108;DHT22;11220;48.812;9.128;2023-12-20T04:34:56;16.90;75.20
22108;DHT22;11220;48.812;9.128;2023-12-20T04:37:22;16.70;75.20
22108;DHT22;11220;48.812;9.128;2023-12-20T04:39:47;16.70;75.30
22108;DHT22;11220;48.812;9.128;2023-12-20T04:42:13;18.50;76.60
22108;DHT22;11220;48.812;9.128;2023-12-20T04:44:38;16.90;75.20
22108;DHT22;11220;48.812;9.128;2023-12-20T04:47:04;16.80;75.20
22108;DHT22;11220;48.812;9.128;2023-12-20T04:49:29;16.90;75.20
22108;DHT22;11220;48.812;9.128;2023-12-20T04:51:55;16.90;75.30
22108;DHT22;11220;48.812;9.128;2023-12-20T04:54:21;17.00;76.30
22108;DHT22;11220;48.812;9.128;2023-12-20T04:56:47;16.90;75.20
22108;DHT22;11220;48.812;9.128;2023-12-20T04:59:12;16.90;75.30
22108;DHT22;11220;48.812;9.128;2023-12-20T05:01:38;16.80;75.20
22108;DHT22;11220;48.812;9.128;2023-12-20T05:04:04;16.80;75.20
22108;DHT22;11220;48.812;9.128;2023-12-20T05:06:29;16.80;75.20
22108;DHT22;11220;48.812;9.128;2023-12-20T05:08:55;16.80;75.20
22108;DHT22;11220;48.812;9.128;2023-12-20T05:11:20;16.80;75.20
22108;DHT22;11220;48.812;9.128;2023-12-20T05:13:46;16.80;75.30
22108;DHT22;11220;48.812;9.128;2023-12-20T05:16:11;16.80;75.20
22108;DHT22;11220;48.812;9.128;2023-12-20T05:18:39;16.80;75.30
22108;DHT22;11220;48.812;9.128;2023-12-20T05:21:04;16.80;75.20
22108;DHT22;11220;48.812;9.128;2023-12-20T05:23:30;16.80;75.20
22108;DHT22;11220;48.812;9.128;2023-12-20T05:25:55;16.80;75.20
22108;DHT22;11220;48.812;9.128;2023-12-20T05:28:21;16.80;75.20
22108;DHT22;11220;48.812;9.128;2023-12-20T05:30:46;16.80;75.30
22108;DHT22;11220;48.812;9.128;2023-12-20T05:33:12;16.80;75.30
22108;DHT22;11220;48.812;9.128;2023-12-20T05:35:37;16.80;75.30
22108;DHT22;11220;48.812;9.128;2023-12-20T05:38:03;16.80;75.40
22108;DHT22;11220;48.812;9.128;2023-12-20T05:40:29;16.80;75.30
22108;DHT22;11220;48.812;9.128;2023-12-20T05:42:54;16.80;75.40
22108;DHT22;11220;48.812;9.128;2023-12-20T05:45:20;16.80;75.40
22108;DHT22;11220;48.812;9.128;2023-12-20T05:47:45;16.80;75.40
22108;DHT22;11220;48.812;9.128;2023-12-20T05:50:11;16.80;75.40
22108;DHT22;11220;48.812;9.128;2023-12-20T05:52:36;16.80;75.40
22108;DHT22;11220;48.812;9.128;2023-12-20T05:55:02;16.80;75.30
22108;DHT22;11220;48.812;9.128;2023-12-20T05:57:27;16.80;75.40
22108;DHT22;11220;48.812;9.128;2023-12-20T05:59:53;16.80;76.30
22108;DHT22;11220;48.812;9.128;2023-12-20T06:02:18;16.80;75.20
22108;DHT22;11220;48.812;9.128;2023-12-20T06:04:44;16.90;75.30
22108;DHT22;11220;48.812;9.128;2023-12-20T06:07:13;16.90;75.20
22108;DHT22;11220;48.812;9.128;2023-12-20T06:09:39;16.90;75.20
22108;DHT22;11220;48.812;9.128;2023-12-20T06:12:05;16.90;75.20
22108;DHT22;11220;48.812;9.128;2023-12-20T06:14:30;16.90;75.10
22108;DHT22;11220;48.812;9.128;2023-12-20T06:16:57;17.00;75.20
22108;DHT22;11220;48.812;9.128;2023-12-20T06:19:22;17.00;75.20
22108;DHT22;11220;48.812;9.128;2023-12-20T06:21:48;17.00;75.10
22108;DHT22;11220;48.812;9.128;2023-12-20T06:24:14;17.00;75.10
22108;DHT22;11220;48.812;9.128;2023-12-20T06:26:39;17.10;75.20
22108;DHT22;11220;48.812;9.128;2023-12-20T06:29:05;17.10;75.10
22108;DHT22;11220;48.812;9.128;2023-12-20T06:31:30;17.10;75.10
22108;DHT22;11220;48.812;9.128;2023-12-20T06:33:58;17.10;75.10
22108;DHT22;11220;48.812;9.128;2023-12-20T06:36:25;17.20;75.20
22108;DHT22;11220;48.812;9.128;2023-12-20T06:38:51;17.20;75.10
22108;DHT22;11220;48.812;9.128;2023-12-20T06:41:17;17.20;75.10
22108;DHT22;11220;48.812;9.128;2023-12-20T06:43:42;17.30;75.10
22108;DHT22;11220;48.812;9.128;2023-12-20T06:46:08;17.30;75.10
22108;DHT22;11220;48.812;9.128;2023-12-20T06:48:34;17.30;75.10
22108;DHT22;11220;48.812;9.128;2023-12-20T06:51:01;17.40;75.10
22108;DHT22;11220;48.812;9.128;2023-12-20T06:53:27;17.40;75.10
22108;DHT22;11220;48.812;9.128;2023-12-20T06:55:53;17.50;75.00
22108;DHT22;11220;48.812;9.128;2023-12-20T06:58:18;17.50;74.90
22108;DHT22;11220;48.812;9.128;2023-12-20T07:00:44;17.50;74.70
22108;DHT22;11220;48.812;9.128;2023-12-20T07:03:10;17.60;74.70
22108;DHT22;11220;48.812;9.128;2023-12-20T07:05:35;17.60;74.40
22108;DHT22;11220;48.812;9.128;2023-12-20T07:08:01;17.60;74.40
22108;DHT22;11220;48.812;9.128;2023-12-20T07:10:27;17.60;74.10
22108;DHT22;11220;48.812;9.128;2023-12-20T07:12:53;18.20;74.40
22108;DHT22;11220;48.812;9.128;2023-12-20T07:15:21;17.70;75.00
22108;DHT22;11220;48.812;9.128;2023-12-20T07:17:46;17.70;74.00
22108;DHT22;11220;48.812;9.128;2023-12-20T07:20:12;17.80;74.00
22108;DHT22;11220;48.812;9.128;2023-12-20T07:22:38;17.80;73.90
22108;DHT22;11220;48.812;9.128;2023-12-20T07:25:04;17.70;73.90
22108;DHT22;11220;48.812;9.128;2023-12-20T07:27:30;17.80;73.90
22108;DHT22;11220;48.812;9.128;2023-12-20T07:29:55;18.20;74.10
22108;DHT22;11220;48.812;9.128;2023-12-20T07:32:21;17.80;73.80
22108;DHT22;11220;48.812;9.128;2023-12-20T07:34:46;19.10;74.60
22108;DHT22;11220;48.812;9.128;2023-12-20T07:37:12;17.90;73.90
22108;DHT22;11220;48.812;9.128;2023-12-20T07:39:39;18.90;74.50
22108;DHT22;11220;48.812;9.128;2023-12-20T07:42:06;19.70;74.90
22108;DHT22;11220;48.812;9.128;2023-12-20T07:44:31;17.90;73.80
22108;DHT22;11220;48.812;9.128;2023-12-20T07:46:57;18.00;74.00
22108;DHT22;11220;48.812;9.128;2023-12-20T07:49:23;17.90;73.80
22108;DHT22;11220;48.812;9.128;2023-12-20T07:51:49;18.00;73.90
22108;DHT22;11220;48.812;9.128;2023-12-20T07:54:15;18.00;73.90
22108;DHT22;11220;48.812;9.128;2023-12-20T07:56:41;19.70;74.90
22108;DHT22;11220;48.812;9.128;2023-12-20T07:59:07;18.00;73.90
22108;DHT22;11220;48.812;9.128;2023-12-20T08:01:33;18.00;73.90
22108;DHT22;11220;48.812;9.128;2023-12-20T08:03:58;18.00;73.80
22108;DHT22;11220;48.812;9.128;2023-12-20T08:06:24;18.00;73.80
22108;DHT22;11220;48.812;9.128;2023-12-20T08:08:51;18.00;73.70
22108;DHT22;11220;48.812;9.128;2023-12-20T08:11:17;18.00;73.70
22108;DHT22;11220;48.812;9.128;2023-12-20T08:13:43;18.00;73.70
22108;DHT22;11220;48.812;9.128;2023-12-20T08:16:08;18.10;73.70
22108;DHT22;11220;48.812;9.128;2023-12-20T08:18:34;18.10;73.70
22108;DHT22;11220;48.812;9.128;2023-12-20T08:21:00;18.10;73.70
22108;DHT22;11220;48.812;9.128;2023-12-20T08:23:25;18.10;73.70
22108;DHT22;11220;48.812;9.128;2023-12-20T08:25:51;18.10;73.60
22108;DHT22;11220;48.812;9.128;2023-12-20T08:28:16;18.20;73.60
22108;DHT22;11220;48.812;9.128;2023-12-20T08:30:42;18.20;74.50
22108;DHT22;11220;48.812;9.128;2023-12-20T08:33:07;18.20;73.50
22108;DHT22;11220;48.812;9.128;2023-12-20T08:35:38;18.20;73.40
22108;DHT22;11220;48.812;9.128;2023-12-20T08:38:04;18.20;73.40
22108;DHT22;11220;48.812;9.128;2023-12-20T08:40:30;18.20;73.40
22108;DHT22;11220;48.812;9.128;2023-12-20T08:42:55;18.30;73.40
22108;DHT22;11220;48.812;9.128;2023-12-20T08:45:21;18.30;73.30
22108;DHT22;11220;48.812;9.128;2023-12-20T08:47:46;18.20;73.20
22108;DHT22;11220;48.812;9.128;2023-12-20T08:50:13;18.30;73.20
22108;DHT22;11220;48.812;9.128;2023-12-20T08:52:40;18.30;73.20
22108;DHT22;11220;48.812;9.128;2023-12-20T08:55:05;18.30;73.10
22108;DHT22;11220;48.812;9.128;2023-12-20T08:57:31;18.30;73.00
22108;DHT22;11220;48.812;9.128;2023-12-20T08:59:57;18.30;73.00
22108;DHT22;11220;48.812;9.128;2023-12-20T09:02:23;18.30;73.00
22108;DHT22;11220;48.812;9.128;2023-12-20T09:04:48;18.30;73.10
22108;DHT22;11220;48.812;9.128;2023-12-20T09:07:24;18.30;73.20
22108;DHT22;11220;48.812;9.128;2023-12-20T09:09:50;18.30;73.20
22108;DHT22;11220;48.812;9.128;2023-12-20T09:12:17;18.30;73.30
22108;DHT22;11220;48.812;9.128;2023-12-20T09:14:43;18.30;73.30
22108;DHT22;11220;48.812;9.128;2023-12-20T09:17:09;18.30;73.30
22108;DHT22;11220;48.812;9.128;2023-12-20T09:19:36;18.30;73.30
22108;DHT22;11220;48.812;9.128;2023-12-20T09:22:02;18.50;73.40
22108;DHT22;11220;48.812;9.128;2023-12-20T09:24:27;18.30;73.30
22108;DHT22;11220;48.812;9.128;2023-12-20T09:26:53;18.30;73.20
22108;DHT22;11220;48.812;9.128;2023-12-20T09:29:18;18.30;73.30
22108;DHT22;11220;48.812;9.128;2023-12-20T09:31:44;18.30;73.20
22108;DHT22;11220;48.812;9.128;2023-12-20T09:34:11;18.50;73.40
22108;DHT22;11220;48.812;9.128;2023-12-20T09:36:37;18.30;73.20
22108;DHT22;11220;48.812;9.128;2023-12-20T09:39:06;18.30;73.20
22108;DHT22;11220;48.812;9.128;2023-12-20T09:41:33;18.30;73.20
22108;DHT22;11220;48.812;9.128;2023-12-20T09:44:03;18.40;73.30
22108;DHT22;11220;48.812;9.128;2023-12-20T09:46:29;18.40;73.20
22108;DHT22;11220;48.812;9.128;2023-12-20T09:48:59;18.40;73.20
22108;DHT22;11220;48.812;9.128;2023-12-20T09:51:27;18.40;73.40
22108;DHT22;11220;48.812;9.128;2023-12-20T09:53:54;18.40;73.20
22108;DHT22;11220;48.812;9.128;2023-12-20T09:56:21;18.40;73.20
22108;DHT22;11220;48.812;9.128;2023-12-20T09:58:47;18.40;73.10
22108;DHT22;11220;48.812;9.128;2023-12-20T10:01:12;18.40;73.00
22108;DHT22;11220;48.812;9.128;2023-12-20T10:03:39;18.40;73.00
22108;DHT22;11220;48.812;9.128;2023-12-20T10:06:06;18.40;73.00
22108;DHT22;11220;48.812;9.128;2023-12-20T10:08:32;18.40;72.90
22108;DHT22;11220;48.812;9.128;2023-12-20T10:10:58;18.40;72.90
22108;DHT22;11220;48.812;9.128;2023-12-20T10:13:28;18.40;72.90
22108;DHT22;11220;48.812;9.128;2023-12-20T10:15:55;18.40;72.90
22108;DHT22;11220;48.812;9.128;2023-12-20T10:18:21;18.40;72.90
22108;DHT22;11220;48.812;9.128;2023-12-20T10:20:46;18.40;72.80
22108;DHT22;11220;48.812;9.128;2023-12-20T10:23:12;18.40;72.80
22108;DHT22;11220;48.812;9.128;2023-12-20T10:25:39;18.40;72.80
22108;DHT22;11220;48.812;9.128;2023-12-20T10:28:10;18.40;72.80
22108;DHT22;11220;48.812;9.128;2023-12-20T10:30:35;18.40;72.80
22108;DHT22;11220;48.812;9.128;2023-12-20T10:33:01;18.40;72.90
22108;DHT22;11220;48.812;9.128;2023-12-20T10:35:27;18.40;72.80
22108;DHT22;11220;48.812;9.128;2023-12-20T10:37:56;18.40;72.80
22108;DHT22;11220;48.812;9.128;2023-12-20T10:40:22;18.40;72.80
22108;DHT22;11220;48.812;9.128;2023-12-20T10:42:48;18.40;72.80
22108;DHT22;11220;48.812;9.128;2023-12-20T10:45:16;18.40;72.80
22108;DHT22;11220;48.812;9.128;2023-12-20T10:47:46;18.40;72.80
22108;DHT22;11220;48.812;9.128;2023-12-20T10:50:11;18.40;72.80
22108;DHT22;11220;48.812;9.128;2023-12-20T10:52:38;18.40;72.80
22108;DHT22;11220;48.812;9.128;2023-12-20T10:55:04;18.40;72.80
22108;DHT22;11220;48.812;9.128;2023-12-20T10:57:30;18.40;72.80
22108;DHT22;11220;48.812;9.128;2023-12-20T10:59:56;18.40;72.90
22108;DHT22;11220;48.812;9.128;2023-12-20T11:02:25;18.40;73.00
22108;DHT22;11220;48.812;9.128;2023-12-20T11:04:55;18.40;73.00
22108;DHT22;11220;48.812;9.128;2023-12-20T11:07:32;18.40;73.00
22108;DHT22;11220;48.812;9.128;2023-12-20T11:15:05;18.40;73.20
22108;DHT22;11220;48.812;9.128;2023-12-20T11:17:32;18.40;73.00
22108;DHT22;11220;48.812;9.128;2023-12-20T11:22:35;18.40;73.00
22108;DHT22;11220;48.812;9.128;2023-12-20T11:25:08;18.40;72.90
22108;DHT22;11220;48.812;9.128;2023-12-20T11:27:35;18.40;72.90
22108;DHT22;11220;48.812;9.128;2023-12-20T11:30:03;18.50;73.80
22108;DHT22;11220;48.812;9.128;2023-12-20T11:32:34;18.40;72.80
22108;DHT22;11220;48.812;9.128;2023-12-20T11:35:01;18.50;72.80
22108;DHT22;11220;48.812;9.128;2023-12-20T11:37:41;18.40;72.70
22108;DHT22;11220;48.812;9.128;2023-12-20T11:40:15;18.50;72.70
22108;DHT22;11220;48.812;9.128;2023-12-20T11:42:43;18.40;72.60
22108;DHT22;11220;48.812;9.128;2023-12-20T11:45:19;18.40;72.60
22108;DHT22;11220;48.812;9.128;2023-12-20T11:47:48;18.50;72.60
22108;DHT22;11220;48.812;9.128;2023-12-20T11:50:20;18.40;72.60
22108;DHT22;11220;48.812;9.128;2023-12-20T11:52:46;18.40;72.60
22108;DHT22;11220;48.812;9.128;2023-12-20T11:55:12;18.40;72.70
22108;DHT22;11220;48.812;9.128;2023-12-20T11:57:38;18.40;72.70
22108;DHT22;11220;48.812;9.128;2023-12-20T12:00:04;18.40;72.80
22108;DHT22;11220;48.812;9.128;2023-12-20T12:02:31;18.40;72.80
22108;DHT22;11220;48.812;9.128;2023-12-20T12:04:57;18.40;72.80
22108;DHT22;11220;48.812;9.128;2023-12-20T12:07:24;18.40;72.80
22108;DHT22;11220;48.812;9.128;2023-12-20T12:09:49;18.40;72.60
22108;DHT22;11220;48.812;9.128;2023-12-20T12:12:16;18.40;72.50
22108;DHT22;11220;48.812;9.128;2023-12-20T12:14:42;18.40;72.30
22108;DHT22;11220;48.812;9.128;2023-12-20T12:17:12;18.40;72.20
22108;DHT22;11220;48.812;9.128;2023-12-20T12:19:39;18.40;72.10
22108;DHT22;11220;48.812;9.128;2023-12-20T12:22:08;18.40;72.00
22108;DHT22;11220;48.812;9.128;2023-12-20T12:24:43;18.40;72.00
22108;DHT22;11220;48.812;9.128;2023-12-20T12:27:09;18.40;71.90
22108;DHT22;11220;48.812;9.128;2023-12-20T12:29:35;18.40;71.90
22108;DHT22;11220;48.812;9.128;2023-12-20T12:32:01;18.40;71.90
22108;DHT22;11220;48.812;9.128;2023-12-20T12:34:29;18.40;71.80
22108;DHT22;11220;48.812;9.128;2023-12-20T12:36:56;18.40;71.90
22108;DHT22;11220;48.812;9.128;2023-12-20T12:39:23;18.40;71.90
22108;DHT22;11220;48.812;9.128;2023-12-20T12:41:50;18.40;71.80
22108;DHT22;11220;48.812;9.128;2023-12-20T12:44:15;18.50;71.80
22108;DHT22;11220;48.812;9.128;2023-12-20T12:46:41;18.50;71.90
22108;DHT22;11220;48.812;9.128;2023-12-20T12:49:06;18.50;71.90
22108;DHT22;11220;48.812;9.128;2023-12-20T12:51:32;18.50;71.70
22108;DHT22;11220;48.812;9.128;2023-12-20T12:53:57;18.50;71.70
22108;DHT22;11220;48.812;9.128;2023-12-20T12:56:23;18.50;71.80
22108;DHT22;11220;48.812;9.128;2023-12-20T12:58:49;18.50;71.80
22108;DHT22;11220;48.812;9.128;2023-12-20T13:01:15;18.50;71.90
22108;DHT22;11220;48.812;9.128;2023-12-20T13:03:40;18.60;72.00
22108;DHT22;11220;48.812;9.128;2023-12-20T13:06:06;18.50;72.00
22108;DHT22;11220;48.812;9.128;2023-12-20T13:08:34;18.50;72.00
22108;DHT22;11220;48.812;9.128;2023-12-20T13:10:59;18.50;72.00
22108;DHT22;11220;48.812;9.128;2023-12-20T13:13:27;18.50;72.10
22108;DHT22;11220;48.812;9.128;2023-12-20T13:15:52;18.50;72.10
22108;DHT22;11220;48.812;9.128;2023-12-20T13:18:21;18.90;72.40
22108;DHT22;11220;48.812;9.128;2023-12-20T13:20:47;18.50;72.20
22108;DHT22;11220;48.812;9.128;2023-12-20T13:23:13;18.50;72.20
22108;DHT22;11220;48.812;9.128;2023-12-20T13:25:39;18.50;72.30
22108;DHT22;11220;48.812;9.128;2023-12-20T13:28:05;18.50;72.30
22108;DHT22;11220;48.812;9.128;2023-12-20T13:30:30;18.50;72.40
22108;DHT22;11220;48.812;9.128;2023-12-20T13:32:56;18.50;72.20
22108;DHT22;11220;48.812;9.128;2023-12-20T13:35:24;18.50;72.20
22108;DHT22;11220;48.812;9.128;2023-12-20T13:37:56;18.50;72.20
22108;DHT22;11220;48.812;9.128;2023-12-20T13:40:22;18.50;72.20
22108;DHT22;11220;48.812;9.128;2023-12-20T13:42:48;18.50;70.20
22108;DHT22;11220;48.812;9.128;2023-12-20T13:45:17;18.40;69.70
22108;DHT22;11220;48.812;9.128;2023-12-20T13:47:42;18.40;70.40
22108;DHT22;11220;48.812;9.128;2023-12-20T13:50:11;18.30;70.50
22108;DHT22;11220;48.812;9.128;2023-12-20T13:52:39;18.20;71.30
22108;DHT22;11220;48.812;9.128;2023-12-20T13:55:04;18.30;71.80
22108;DHT22;11220;48.812;9.128;2023-12-20T13:57:32;18.30;71.90
22108;DHT22;11220;48.812;9.128;2023-12-20T13:59:58;18.30;72.00
22108;DHT22;11220;48.812;9.128;2023-12-20T14:02:23;18.30;72.10
22108;DHT22;11220;48.812;9.128;2023-12-20T14:04:49;18.30;72.30
22108;DHT22;11220;48.812;9.128;2023-12-20T14:07:15;18.30;72.30
22108;DHT22;11220;48.812;9.128;2023-12-20T14:09:41;18.30;72.30
22108;DHT22;11220;48.812;9.128;2023-12-20T14:12:11;18.30;72.40
22108;DHT22;11220;48.812;9.128;2023-12-20T14:14:36;18.30;72.50
22108;DHT22;11220;48.812;9.128;2023-12-20T14:17:02;18.30;72.50
22108;DHT22;11220;48.812;9.128;2023-12-20T14:19:29;18.30;72.60
22108;DHT22;11220;48.812;9.128;2023-12-20T14:21:54;18.30;72.70
22108;DHT22;11220;48.812;9.128;2023-12-20T14:24:20;18.30;72.70
22108;DHT22;11220;48.812;9.128;2023-12-20T14:26:45;18.30;72.70
22108;DHT22;11220;48.812;9.128;2023-12-20T14:29:11;18.30;72.80
22108;DHT22;11220;48.812;9.128;2023-12-20T14:31:36;18.20;72.90
22108;DHT22;11220;48.812;9.128;2023-12-20T14:34:04;18.30;73.00
22108;DHT22;11220;48.812;9.128;2023-12-20T14:36:30;18.20;74.00
22108;DHT22;11220;48.812;9.128;2023-12-20T14:38:56;18.30;73.00
22108;DHT22;11220;48.812;9.128;2023-12-20T14:41:22;18.20;73.00
22108;DHT22;11220;48.812;9.128;2023-12-20T14:43:50;18.20;73.00
22108;DHT22;11220;48.812;9.128;2023-12-20T14:46:17;18.30;73.10
22108;DHT22;11220;48.812;9.128;2023-12-20T14:48:43;18.30;73.20
22108;DHT22;11220;48.812;9.128;2023-12-20T14:51:09;18.30;73.20
22108;DHT22;11220;48.812;9.128;2023-12-20T14:53:35;18.30;73.20
22108;DHT22;11220;48.812;9.128;2023-12-20T14:56:06;18.30;73.20
22108;DHT22;11220;48.812;9.128;2023-12-20T14:58:32;18.30;73.20
22108;DHT22;11220;48.812;9.128;2023-12-20T15:00:58;18.30;73.20
22108;DHT22;11220;48.812;9.128;2023-12-20T15:03:24;18.30;73.20
22108;DHT22;11220;48.812;9.128;2023-12-20T15:05:50;18.30;73.20
22108;DHT22;11220;48.812;9.128;2023-12-20T15:08:15;18.30;73.10
22108;DHT22;11220;48.812;9.128;2023-12-20T15:10:41;18.30;73.20
22108;DHT22;11220;48.812;9.128;2023-12-20T15:13:06;18.30;73.20
22108;DHT22;11220;48.812;9.128;2023-12-20T15:15:32;18.30;73.10
22108;DHT22;11220;48.812;9.128;2023-12-20T15:17:59;19.10;73.60
22108;DHT22;11220;48.812;9.128;2023-12-20T15:20:24;18.30;73.10
22108;DHT22;11220;48.812;9.128;2023-12-20T15:22:50;18.30;73.10
22108;DHT22;11220;48.812;9.128;2023-12-20T15:25:16;18.80;73.40
22108;DHT22;11220;48.812;9.128;2023-12-20T15:27:49;18.30;73.10
22108;DHT22;11220;48.812;9.128;2023-12-20T15:30:21;18.30;73.20